createdAt,value
2023-01-23T00:01:16.894Z,32.78
2023-01-23T00:03:44.495Z,30.20
2023-01-23T00:06:14.320Z,32.25
2023-01-23T00:08:43.102Z,40.00
2023-01-23T00:11:16.951Z,34.67
2023-01-23T00:13:44.811Z,29.73
2023-01-23T00:16:16.205Z,28.20
2023-01-23T00:18:43.906Z,27.67
2023-01-23T00:21:14.647Z,32.70
2023-01-23T00:23:46.651Z,30.70
2023-01-23T00:26:17.806Z,37.20
2023-01-23T00:28:46.314Z,31.48
2023-01-23T00:31:20.742Z,30.35
2023-01-23T00:33:48.516Z,26.80
2023-01-23T00:36:16.101Z,32.00
2023-01-23T00:38:43.921Z,29.33
2023-01-23T00:41:12.608Z,24.80
2023-01-23T00:43:40.225Z,32.00
2023-01-23T00:46:07.726Z,23.90
2023-01-23T00:48:35.353Z,23.83
2023-01-23T00:51:02.915Z,31.70
2023-01-23T00:53:30.446Z,28.48
2023-01-23T00:55:57.801Z,26.77
2023-01-23T00:58:25.393Z,24.02
2023-01-23T01:00:52.890Z,23.38
2023-01-23T01:03:20.769Z,21.95
2023-01-23T01:05:50.200Z,25.58
2023-01-23T01:08:17.849Z,32.00
2023-01-23T01:10:45.396Z,21.27
2023-01-23T01:13:13.355Z,24.30
2023-01-23T01:15:41.066Z,24.45
2023-01-23T01:18:08.658Z,22.85
2023-01-23T01:20:36.241Z,21.77
2023-01-23T01:23:04.013Z,22.45
2023-01-23T01:25:31.651Z,22.30
2023-01-23T01:27:59.105Z,23.20
2023-01-23T01:30:30.418Z,22.65
2023-01-23T01:32:57.945Z,23.85
2023-01-23T01:35:25.603Z,24.65
2023-01-23T01:37:52.898Z,24.05
2023-01-23T01:40:23.820Z,22.65
2023-01-23T01:45:59.186Z,21.23
2023-01-23T01:48:41.453Z,24.52
2023-01-23T01:51:14.840Z,19.73
2023-01-23T01:53:43.242Z,21.27
2023-01-23T01:56:13.013Z,19.40
2023-01-23T01:58:44.195Z,19.05
2023-01-23T02:01:11.855Z,24.20
2023-01-23T02:03:39.741Z,17.38
2023-01-23T02:06:07.896Z,20.38
2023-01-23T02:09:04.836Z,18.52
2023-01-23T02:11:32.190Z,21.52
2023-01-23T02:13:59.795Z,15.63
2023-01-23T02:16:31.357Z,18.92
2023-01-23T02:19:08.450Z,21.38
2023-01-23T02:21:37.794Z,23.35
2023-01-23T02:24:15.472Z,21.35
2023-01-23T02:26:45.564Z,19.63
2023-01-23T02:29:15.537Z,21.42
2023-01-23T02:31:44.441Z,17.48
2023-01-23T02:34:13.786Z,16.52
2023-01-23T02:36:45.650Z,18.92
2023-01-23T02:39:16.605Z,16.90
2023-01-23T02:41:46.996Z,20.38
2023-01-23T02:44:27.394Z,20.63
2023-01-23T02:46:56.457Z,18.45
2023-01-23T02:49:24.043Z,18.77
2023-01-23T02:51:54.178Z,13.68
2023-01-23T02:54:22.598Z,14.98
2023-01-23T02:56:50.538Z,15.80
2023-01-23T02:59:36.800Z,16.42
2023-01-23T03:02:06.302Z,15.23
2023-01-23T03:04:33.901Z,14.20
2023-01-23T03:07:01.680Z,15.65
2023-01-23T03:09:29.110Z,15.52
2023-01-23T03:11:56.651Z,16.88
2023-01-23T03:14:24.563Z,17.35
2023-01-23T03:16:53.845Z,14.70
2023-01-23T03:19:24.448Z,15.00
2023-01-23T03:21:53.273Z,13.75
2023-01-23T03:24:21.447Z,12.10
2023-01-23T03:26:50.800Z,12.43
2023-01-23T03:29:39.320Z,13.90
2023-01-23T03:32:08.501Z,11.73
2023-01-23T03:34:36.303Z,16.58
2023-01-23T03:37:04.148Z,21.60
2023-01-23T03:39:49.846Z,23.88
2023-01-23T03:42:17.447Z,25.25
2023-01-23T03:44:44.989Z,28.02
2023-01-23T03:47:12.225Z,31.90
2023-01-23T03:49:39.748Z,27.52
2023-01-23T03:52:07.402Z,26.52
2023-01-23T03:54:35.205Z,29.15
2023-01-23T03:57:02.593Z,29.33
2023-01-23T03:59:30.250Z,23.60
2023-01-23T04:01:58.126Z,27.10
2023-01-23T04:04:25.497Z,33.75
2023-01-23T04:06:53.095Z,27.60
2023-01-23T04:09:26.143Z,27.67
2023-01-23T04:11:58.544Z,27.55
2023-01-23T04:14:27.653Z,26.85
2023-01-23T04:16:55.326Z,24.38
2023-01-23T04:19:22.959Z,27.35
2023-01-23T04:21:50.450Z,24.77
2023-01-23T04:24:18.306Z,26.20
2023-01-23T04:26:45.954Z,23.27
2023-01-23T04:29:13.450Z,24.10
2023-01-23T04:31:41.795Z,23.92
2023-01-23T04:34:09.343Z,28.25
2023-01-23T04:36:36.950Z,26.05
2023-01-23T04:39:04.769Z,29.60
2023-01-23T04:41:33.395Z,26.20
2023-01-23T04:44:19.842Z,26.98
2023-01-23T04:46:50.070Z,24.83
2023-01-23T04:49:19.450Z,23.27
2023-01-23T04:51:48.403Z,20.73
2023-01-23T04:54:17.295Z,20.67
2023-01-23T04:56:45.835Z,21.15
2023-01-23T05:03:52.896Z,20.15
2023-01-23T05:06:20.550Z,21.73
2023-01-23T05:08:48.093Z,20.10
2023-01-23T05:11:15.594Z,23.15
2023-01-23T05:13:43.448Z,21.95
2023-01-23T05:16:11.319Z,17.35
2023-01-23T05:18:38.832Z,15.57
2023-01-23T05:21:06.703Z,16.95
2023-01-23T05:23:34.345Z,15.55
2023-01-23T05:26:01.787Z,17.15
2023-01-23T05:28:29.244Z,17.20
2023-01-23T05:30:57.116Z,21.55
2023-01-23T05:33:24.595Z,18.05
2023-01-23T05:35:52.065Z,15.63
2023-01-23T05:38:19.596Z,23.38
2023-01-23T05:40:47.096Z,19.95
2023-01-23T05:43:15.560Z,14.32
2023-01-23T05:45:43.176Z,16.10
2023-01-23T05:48:10.678Z,17.25
2023-01-23T05:50:38.190Z,14.57
2023-01-23T05:53:05.746Z,16.23
2023-01-23T05:55:33.029Z,15.98
2023-01-23T05:58:00.345Z,19.60
2023-01-23T06:00:27.850Z,19.70
2023-01-23T06:02:55.371Z,21.60
2023-01-23T06:05:23.485Z,16.48
2023-01-23T06:07:50.798Z,18.15
2023-01-23T06:10:18.461Z,16.45
2023-01-23T06:12:46.138Z,19.58
2023-01-23T06:15:13.493Z,22.73
2023-01-23T06:17:40.862Z,20.40
2023-01-23T06:20:09.174Z,19.45
2023-01-23T06:22:36.578Z,20.42
2023-01-23T06:25:05.694Z,27.52
2023-01-23T06:27:33.178Z,19.48
2023-01-23T06:30:00.497Z,24.33
2023-01-23T06:32:28.346Z,24.77
2023-01-23T06:34:55.845Z,27.13
2023-01-23T06:37:23.481Z,23.33
2023-01-23T06:39:51.016Z,21.33
2023-01-23T06:42:18.588Z,19.67
2023-01-23T06:44:46.199Z,18.70
2023-01-23T06:47:13.697Z,16.88
2023-01-23T06:49:41.045Z,21.40
2023-01-23T06:52:08.640Z,19.83
2023-01-23T06:54:36.167Z,20.42
2023-01-23T06:57:04.470Z,20.85
2023-01-23T06:59:32.352Z,22.23
2023-01-23T07:02:00.128Z,20.70
2023-01-23T07:04:27.883Z,16.15
2023-01-23T07:06:55.593Z,18.75
2023-01-23T07:09:22.974Z,19.02
2023-01-23T07:11:50.387Z,17.90
2023-01-23T07:14:17.989Z,18.35
2023-01-23T07:16:45.831Z,16.40
2023-01-23T07:19:13.388Z,17.52
2023-01-23T07:21:41.001Z,17.15
2023-01-23T07:24:08.651Z,13.88
2023-01-23T07:26:35.977Z,16.02
2023-01-23T07:29:03.276Z,16.38
2023-01-23T07:31:30.885Z,14.85
2023-01-23T07:33:58.440Z,15.70
2023-01-23T07:36:25.990Z,18.85
2023-01-23T07:38:53.308Z,16.17
2023-01-23T07:41:20.689Z,15.15
2023-01-23T07:43:48.507Z,15.65
2023-01-23T07:46:16.227Z,17.52
2023-01-23T07:48:43.788Z,16.90
2023-01-23T07:51:12.077Z,16.40
2023-01-23T07:53:39.717Z,17.00
2023-01-23T07:56:07.558Z,15.55
2023-01-23T07:58:35.097Z,14.38
2023-01-23T08:01:10.546Z,12.93
2023-01-23T08:03:38.045Z,40.40
2023-01-23T08:06:05.982Z,39.85
2023-01-23T08:08:33.795Z,30.75
2023-01-23T08:11:04.832Z,21.65
2023-01-23T08:16:03.642Z,15.82
2023-01-23T08:18:31.698Z,17.98
2023-01-23T08:21:02.896Z,15.75
2023-01-23T08:26:02.644Z,13.65
2023-01-23T08:28:30.440Z,17.23
2023-01-23T08:31:06.325Z,13.52
2023-01-23T08:33:35.894Z,21.35
2023-01-23T08:36:04.987Z,15.95
2023-01-23T08:38:32.945Z,16.83
2023-01-23T08:41:02.140Z,18.33
2023-01-23T08:43:31.266Z,15.70
2023-01-23T08:45:59.979Z,14.25
2023-01-23T08:48:27.906Z,20.80
2023-01-23T08:51:01.936Z,18.85
2023-01-23T08:53:33.325Z,18.55
2023-01-23T08:56:06.807Z,44.28
2023-01-23T08:58:35.137Z,47.50
2023-01-23T09:01:02.776Z,26.42
2023-01-23T09:03:30.201Z,21.42
2023-01-23T09:06:02.630Z,16.70
2023-01-23T09:08:30.944Z,28.30
2023-01-23T09:11:02.116Z,27.15
2023-01-23T09:15:57.995Z,18.88
2023-01-23T09:18:25.917Z,18.73
2023-01-23T09:20:54.559Z,16.10
2023-01-23T09:23:24.225Z,23.95
2023-01-23T09:25:52.149Z,57.72
2023-01-23T09:28:19.957Z,67.95
2023-01-23T09:30:47.431Z,59.78
2023-01-23T09:33:16.990Z,66.47
2023-01-23T09:35:45.589Z,59.58
2023-01-23T09:38:13.290Z,68.85
2023-01-23T09:40:51.298Z,73.85
2023-01-23T09:43:32.300Z,75.85
2023-01-23T09:46:20.631Z,73.57
2023-01-23T09:53:15.755Z,65.85
2023-01-23T09:55:49.297Z,77.85
2023-01-23T09:58:27.789Z,64.95
2023-01-23T10:00:55.652Z,71.55
2023-01-23T10:03:29.876Z,69.97
2023-01-23T10:06:07.985Z,72.05
2023-01-23T10:08:53.739Z,65.55
2023-01-23T10:11:44.681Z,59.13
2023-01-23T10:14:21.851Z,70.05
2023-01-23T10:17:11.730Z,53.90
2023-01-23T10:20:00.553Z,53.50
2023-01-23T10:22:47.360Z,56.67
2023-01-23T10:25:24.313Z,39.67
2023-01-23T10:27:55.737Z,50.83
2023-01-23T10:30:36.951Z,50.05
2023-01-23T10:33:14.980Z,40.95
2023-01-23T10:35:50.923Z,25.48
2023-01-23T10:38:27.500Z,18.70
2023-01-23T10:41:13.694Z,15.45
2023-01-23T10:43:42.835Z,14.32
2023-01-23T10:46:23.568Z,16.50
2023-01-23T10:48:53.033Z,13.90
2023-01-23T10:51:31.366Z,14.15
2023-01-23T10:54:30.201Z,18.55
2023-01-23T10:57:08.650Z,20.00
2023-01-23T10:59:49.688Z,17.02
2023-01-23T11:04:49.187Z,20.23
2023-01-23T11:07:20.466Z,22.90
2023-01-23T11:09:50.193Z,16.33
2023-01-23T11:12:26.937Z,10.40
2023-01-23T11:15:12.049Z,18.95
2023-01-23T11:17:41.932Z,15.75
2023-01-23T11:20:24.541Z,10.90
2023-01-23T11:23:10.955Z,11.35
2023-01-23T11:25:52.539Z,10.30
2023-01-23T11:28:27.088Z,12.95
2023-01-23T11:31:12.391Z,7.90
2023-01-23T11:33:57.308Z,11.77
2023-01-23T11:36:46.135Z,9.88
2023-01-23T11:39:29.838Z,13.10
2023-01-23T11:41:57.948Z,24.35
2023-01-23T11:44:26.643Z,11.57
2023-01-23T11:47:08.395Z,11.85
2023-01-23T11:50:07.013Z,11.83
2023-01-23T11:52:37.984Z,10.32
2023-01-23T11:55:46.136Z,9.60
2023-01-23T12:02:19.431Z,8.25
2023-01-23T12:05:07.685Z,9.77
2023-01-23T12:07:59.778Z,16.67
2023-01-23T12:10:32.946Z,17.45
2023-01-23T12:13:15.623Z,14.00
2023-01-23T12:15:52.322Z,19.75
2023-01-23T12:18:40.191Z,11.52
2023-01-23T12:21:18.364Z,9.52
2023-01-23T12:23:58.294Z,15.23
2023-01-23T12:26:29.888Z,8.95
2023-01-23T12:29:22.146Z,11.55
2023-01-23T12:32:12.249Z,15.30
2023-01-23T12:34:45.136Z,10.63
2023-01-23T12:37:30.325Z,10.48
2023-01-23T12:40:01.565Z,15.10
2023-01-23T12:42:35.268Z,9.13
2023-01-23T12:45:17.643Z,7.82
2023-01-23T12:48:00.215Z,10.90
2023-01-23T12:50:56.089Z,11.70
2023-01-23T12:53:26.945Z,10.55
2023-01-23T12:56:04.597Z,9.68
2023-01-23T12:58:40.589Z,6.97
2023-01-23T13:01:57.401Z,10.73
2023-01-23T13:04:40.136Z,11.95
2023-01-23T13:07:37.810Z,8.27
2023-01-23T13:11:09.939Z,9.13
2023-01-23T13:13:38.035Z,10.73
2023-01-23T13:16:16.427Z,11.35
2023-01-23T13:19:15.434Z,9.63
2023-01-23T13:22:27.784Z,8.63
2023-01-23T13:25:17.619Z,7.78
2023-01-23T13:27:55.710Z,7.50
2023-01-23T13:30:32.987Z,8.95
2023-01-23T13:33:04.125Z,7.78
2023-01-23T13:35:46.880Z,7.07
2023-01-23T13:38:26.270Z,9.82
2023-01-23T13:41:08.287Z,10.32
2023-01-23T13:43:42.884Z,13.27
2023-01-23T13:46:29.075Z,7.13
2023-01-23T14:22:06.849Z,7.43
2023-01-23T14:24:51.976Z,6.32
2023-01-23T14:27:36.789Z,9.23
2023-01-23T14:30:20.668Z,15.48
2023-01-23T14:32:50.013Z,24.90
2023-01-23T14:35:25.914Z,11.40
2023-01-23T14:37:56.636Z,8.98
2023-01-23T14:40:43.096Z,8.98
2023-01-23T14:43:27.232Z,5.65
2023-01-23T14:46:06.411Z,11.95
2023-01-23T14:48:39.271Z,19.27
2023-01-23T14:51:24.625Z,10.55
2023-01-23T14:54:02.173Z,9.30
2023-01-23T14:56:36.641Z,11.93
2023-01-23T14:59:23.984Z,9.95
2023-01-23T15:02:05.310Z,8.52
2023-01-23T15:04:37.899Z,13.98
2023-01-23T15:07:05.687Z,12.98
2023-01-23T15:09:41.638Z,14.45
2023-01-23T15:12:18.006Z,10.43
2023-01-23T15:14:45.728Z,9.52
2023-01-23T15:17:22.688Z,15.35
2023-01-23T15:19:54.293Z,11.48
2023-01-23T15:22:27.534Z,15.68
2023-01-23T15:24:56.025Z,14.48
2023-01-23T15:27:33.451Z,14.15
2023-01-23T15:30:29.975Z,15.00
2023-01-23T15:32:58.942Z,17.40
2023-01-23T15:35:26.676Z,17.60
2023-01-23T15:37:56.361Z,16.42
2023-01-23T15:40:29.680Z,15.43
2023-01-23T15:43:06.393Z,13.27
2023-01-23T15:45:34.432Z,14.93
2023-01-23T15:48:01.777Z,18.48
2023-01-23T15:50:30.339Z,10.63
2023-01-23T15:52:58.003Z,13.35
2023-01-23T15:55:28.328Z,18.58
2023-01-23T15:57:56.487Z,9.90
2023-01-23T16:00:27.140Z,16.77
2023-01-23T16:02:57.648Z,12.98
2023-01-23T16:05:31.093Z,11.43
2023-01-23T16:08:03.437Z,12.07
2023-01-23T16:10:35.182Z,12.95
2023-01-23T16:13:03.331Z,12.40
2023-01-23T16:15:35.252Z,17.00
2023-01-23T16:18:06.347Z,18.92
2023-01-23T16:20:45.829Z,13.43
2023-01-23T16:23:24.718Z,15.93
2023-01-23T16:25:53.046Z,15.40
2023-01-23T16:28:26.567Z,16.77
2023-01-23T16:30:53.921Z,9.98
2023-01-23T16:33:22.468Z,14.43
2023-01-23T16:35:53.336Z,13.60
2023-01-23T16:38:24.582Z,14.90
2023-01-23T16:40:53.526Z,10.73
2023-01-23T16:43:22.223Z,12.85
2023-01-23T16:45:49.589Z,11.02
2023-01-23T16:48:26.380Z,11.40
2023-01-23T16:51:00.957Z,11.00
2023-01-23T16:53:33.002Z,18.92
2023-01-23T16:56:02.351Z,11.68
2023-01-23T16:58:34.721Z,10.75
2023-01-23T17:01:05.073Z,11.18
2023-01-23T17:03:40.686Z,15.90
2023-01-23T17:06:16.064Z,11.85
2023-01-23T17:08:44.077Z,16.70
2023-01-23T17:11:36.373Z,13.70
2023-01-23T17:14:08.939Z,11.70
2023-01-23T17:16:36.900Z,13.95
2023-01-23T17:19:21.699Z,18.90
2023-01-23T17:21:49.773Z,12.27
2023-01-23T17:24:17.994Z,14.57
2023-01-23T17:26:45.595Z,15.93
2023-01-23T17:29:13.523Z,13.52
2023-01-23T17:31:41.217Z,19.67
2023-01-23T17:34:18.870Z,18.73
2023-01-23T17:36:47.315Z,15.70
2023-01-23T17:39:14.835Z,12.27
2023-01-23T17:41:42.284Z,15.77
2023-01-23T17:44:10.183Z,14.55
2023-01-23T17:46:39.556Z,12.80
2023-01-23T17:49:29.875Z,12.80
2023-01-23T17:51:58.876Z,18.13
2023-01-23T17:54:26.771Z,21.33
2023-01-23T17:56:54.380Z,17.95
2023-01-23T17:59:21.836Z,13.32
2023-01-23T18:01:49.244Z,18.17
2023-01-23T18:04:22.604Z,16.95
2023-01-23T18:06:50.663Z,23.73
2023-01-23T18:09:19.081Z,14.05
2023-01-23T18:11:52.300Z,15.82
2023-01-23T18:14:52.769Z,14.95
2023-01-23T18:17:28.773Z,15.23
2023-01-23T18:19:56.328Z,34.13
2023-01-23T18:22:24.139Z,25.90
2023-01-23T18:24:51.975Z,43.33
2023-01-23T18:27:25.321Z,25.13
2023-01-23T18:29:55.980Z,21.83
2023-01-23T18:32:38.627Z,14.65
2023-01-23T18:35:27.135Z,15.35
2023-01-23T18:38:12.788Z,16.02
2023-01-23T18:40:48.445Z,12.20
2023-01-23T18:43:39.858Z,18.27
2023-01-23T18:46:20.335Z,21.50
2023-01-23T18:48:49.678Z,18.20
2023-01-23T18:51:20.133Z,18.33
2023-01-23T18:54:07.182Z,14.98
2023-01-23T18:57:07.699Z,21.05
2023-01-23T18:59:38.279Z,14.70
2023-01-23T19:02:32.865Z,19.75
2023-01-23T19:05:16.024Z,18.15
2023-01-23T19:07:45.095Z,14.30
2023-01-23T19:10:14.938Z,13.90
2023-01-23T19:13:18.919Z,18.88
2023-01-23T19:16:28.646Z,16.83
2023-01-23T19:19:20.745Z,21.40
2023-01-23T19:21:48.467Z,19.27
2023-01-23T19:24:19.115Z,23.73
2023-01-23T19:26:46.777Z,19.33
2023-01-23T19:29:21.937Z,19.73
2023-01-23T19:32:07.114Z,21.80
2023-01-23T19:34:35.139Z,18.65
2023-01-23T19:37:03.627Z,22.42
2023-01-23T19:39:31.082Z,20.88
2023-01-23T19:41:59.335Z,19.20
2023-01-23T19:44:28.963Z,20.02
2023-01-23T19:46:56.536Z,18.25
2023-01-23T19:49:25.222Z,20.67
2023-01-23T19:51:52.877Z,25.88
2023-01-23T19:54:22.331Z,22.95
2023-01-23T19:56:51.570Z,20.77
2023-01-23T19:59:19.124Z,24.73
2023-01-23T20:01:51.086Z,22.95
2023-01-23T20:04:23.227Z,27.95
2023-01-23T20:06:52.209Z,23.48
2023-01-23T20:09:20.171Z,21.98
2023-01-23T20:11:48.183Z,22.70
2023-01-23T20:14:15.775Z,21.25
2023-01-23T20:16:43.691Z,24.98
2023-01-23T20:19:14.984Z,23.42
2023-01-23T20:24:10.449Z,20.42
2023-01-23T20:26:39.322Z,29.25
2023-01-23T20:29:08.567Z,21.50
2023-01-23T20:31:36.185Z,22.08
2023-01-23T20:34:03.871Z,22.20
2023-01-23T20:36:31.398Z,18.63
2023-01-23T20:38:59.000Z,14.05
2023-01-23T20:41:28.831Z,22.38
2023-01-23T20:43:56.471Z,20.45
2023-01-23T20:46:24.094Z,22.23
2023-01-23T20:48:51.564Z,19.92
2023-01-23T20:51:19.691Z,21.63
2023-01-23T20:53:47.175Z,26.48
2023-01-23T20:56:18.075Z,20.98
2023-01-23T20:59:07.294Z,19.55
2023-01-23T21:01:56.241Z,15.80
2023-01-23T21:04:26.468Z,16.77
2023-01-23T21:06:54.876Z,21.17
2023-01-23T21:09:23.887Z,21.55
2023-01-23T21:11:52.374Z,22.20
2023-01-23T21:14:21.185Z,20.73
2023-01-23T21:16:49.222Z,18.63
2023-01-23T21:19:16.775Z,16.52
2023-01-23T21:21:46.332Z,19.17
2023-01-23T21:24:14.123Z,23.58
2023-01-23T21:26:43.792Z,20.10
2023-01-23T21:29:11.325Z,20.30
2023-01-23T21:31:39.728Z,20.70
2023-01-23T21:34:11.333Z,18.80
2023-01-23T21:36:40.265Z,23.00
2023-01-23T21:39:10.166Z,22.38
2023-01-23T21:41:37.815Z,20.05
2023-01-23T21:44:05.271Z,21.55
2023-01-23T21:46:32.960Z,27.42
2023-01-23T21:49:00.617Z,20.13
2023-01-23T21:51:28.415Z,18.08
2023-01-23T21:53:56.119Z,21.38
2023-01-23T21:56:24.591Z,23.55
2023-01-23T21:58:52.841Z,21.52
2023-01-23T22:01:39.600Z,21.90
2023-01-23T22:04:10.528Z,20.33
2023-01-23T22:06:40.456Z,22.45
2023-01-23T22:09:09.341Z,19.92
2023-01-23T22:11:37.378Z,18.35
2023-01-23T22:14:05.532Z,20.90
2023-01-23T22:16:47.511Z,19.90
2023-01-23T22:19:18.683Z,20.83
2023-01-23T22:21:46.823Z,21.88
2023-01-23T22:24:15.251Z,27.17
2023-01-23T22:26:43.565Z,24.13
2023-01-23T22:29:12.947Z,29.77
2023-01-23T22:31:40.969Z,28.08
2023-01-23T22:34:09.366Z,22.77
2023-01-23T22:36:36.944Z,32.47
2023-01-23T22:39:04.484Z,20.77
2023-01-23T22:41:32.731Z,24.80
2023-01-23T22:44:00.324Z,20.27
2023-01-23T22:46:29.034Z,23.50
2023-01-23T22:48:56.683Z,26.15
2023-01-23T22:51:26.523Z,22.40
2023-01-23T22:53:55.183Z,19.02
2023-01-23T22:56:23.468Z,24.10
2023-01-23T22:58:53.382Z,29.15
2023-01-23T23:01:24.904Z,21.58
2023-01-23T23:03:52.750Z,24.83
2023-01-23T23:06:20.459Z,19.27
2023-01-23T23:08:49.482Z,28.10
2023-01-23T23:11:19.788Z,22.75
2023-01-23T23:13:47.477Z,21.67
2023-01-23T23:16:22.124Z,21.63
2023-01-23T23:18:52.568Z,22.15
2023-01-23T23:21:22.773Z,28.00
2023-01-23T23:23:50.715Z,26.42
2023-01-23T23:26:18.320Z,20.75
2023-01-23T23:28:45.763Z,21.17
2023-01-23T23:31:13.510Z,31.60
2023-01-23T23:33:40.882Z,23.27
2023-01-23T23:36:08.566Z,23.75
2023-01-23T23:38:36.073Z,23.27
2023-01-23T23:41:07.225Z,20.10
2023-01-23T23:46:05.249Z,19.67
2023-01-23T23:48:34.618Z,20.75
2023-01-23T23:51:04.708Z,21.17
2023-01-23T23:53:32.461Z,21.63
2023-01-23T23:55:59.727Z,21.27
2023-01-23T23:58:27.467Z,21.95
